Time;durP1;ratioP1;P1;durP2;ratioP2;P2;SDS_P1;SDS_P2;PMS_P1;PMS_P2;Temp;Humidity;BMP_temperature;BMP_pressure;BME280_temperature;BME280_humidity;BME280_pressure;Samples;Min_cycle;Max_cycle;Signal;HPM_P1;HPM_P2
2022/01/06 00:00:43;;;;;;;11.10;2.77;;;;;;;-145.69;100.00;72785.59;5053078;28;20221;-76
2022/01/06 00:03:09;;;;;;;15.10;2.90;;;;;;;-145.69;100.00;72783.59;5053047;28;20713;-76
2022/01/06 00:05:36;;;;;;;12.77;2.87;;;;;;;-145.69;100.00;72767.69;5052683;28;20199;-76
2022/01/06 00:08:03;;;;;;;11.00;3.30;;;;;;;-145.69;100.00;72779.63;5052970;28;20199;-76
2022/01/06 00:10:31;;;;;;;6.77;3.03;;;;;;;-145.69;100.00;72775.63;5052830;28;20713;-76
2022/01/06 00:13:11;;;;;;;12.13;3.27;;;;;;;-145.69;100.00;72775.63;5052624;28;20658;-76
2022/01/06 00:15:44;;;;;;;11.47;3.17;;;;;;;-145.69;100.00;72775.63;5052895;28;20210;-76
2022/01/06 00:18:20;;;;;;;14.20;3.17;;;;;;;-145.69;100.00;72763.69;5053083;28;20203;-76
2022/01/06 00:23:34;;;;;;;9.53;3.00;;;;;;;-145.69;100.00;72765.69;5052867;28;20300;-76
2022/01/06 00:26:02;;;;;;;12.07;3.37;;;;;;;-145.69;100.00;72767.69;5053010;28;20199;-76
2022/01/06 00:28:29;;;;;;;13.40;2.97;;;;;;;-145.69;100.00;72761.69;5052839;28;20222;-76
2022/01/06 00:30:56;;;;;;;12.23;4.13;;;;;;;-145.69;100.00;72747.78;5052200;28;20441;-76
2022/01/06 00:33:24;;;;;;;11.67;3.20;;;;;;;-145.69;100.00;72747.78;5053194;28;20210;-76
2022/01/06 00:35:52;;;;;;;11.60;3.47;;;;;;;-145.69;100.00;72745.78;5052783;28;20203;-76
2022/01/06 00:38:18;;;;;;;12.40;3.63;;;;;;;-145.69;100.00;72757.72;5052834;28;20215;-76
2022/01/06 00:40:45;;;;;;;13.90;3.67;;;;;;;-145.69;100.00;72755.72;5052719;28;20195;-76
2022/01/06 00:43:12;;;;;;;14.00;3.70;;;;;;;-145.69;100.00;72775.63;5052607;28;20237;-76
2022/01/06 00:45:38;;;;;;;16.47;4.03;;;;;;;-145.69;100.00;72779.63;5052168;28;20188;-76
2022/01/06 00:48:07;;;;;;;15.70;3.60;;;;;;;-145.69;100.00;72775.63;5046886;28;20192;-76
2022/01/06 00:50:35;;;;;;;14.73;3.80;;;;;;;-145.69;100.00;72781.59;5032756;28;20282;-76
2022/01/06 00:53:03;;;;;;;17.67;5.03;;;;;;;-145.69;100.00;72787.56;5032763;28;20604;-76
2022/01/06 00:55:30;;;;;;;11.40;3.70;;;;;;;-145.69;100.00;72783.59;5032392;28;20287;-76
2022/01/06 00:57:56;;;;;;;14.43;3.77;;;;;;;-145.69;100.00;72787.56;5032753;28;20207;-76
2022/01/06 01:00:27;;;;;;;17.50;4.07;;;;;;;-145.69;100.00;72783.59;5032398;28;20197;-76
2022/01/06 01:02:54;;;;;;;22.57;3.87;;;;;;;-145.69;100.00;72785.59;5032578;28;20289;-76
2022/01/06 01:05:20;;;;;;;15.90;3.57;;;;;;;-145.69;100.00;72791.56;5032308;28;20236;-76
2022/01/06 01:07:48;;;;;;;8.83;3.37;;;;;;;-145.69;100.00;72781.59;5035491;28;20204;-76
2022/01/06 01:10:15;;;;;;;14.00;3.37;;;;;;;-145.69;100.00;72785.59;5036525;28;20227;-76
2022/01/06 01:12:46;;;;;;;11.17;3.53;;;;;;;-145.69;100.00;72777.63;5036373;28;20200;-76
2022/01/06 01:15:19;;;;;;;13.80;3.87;;;;;;;-145.69;100.00;72783.59;5037188;28;20204;-76
2022/01/06 01:17:47;;;;;;;11.00;2.97;;;;;;;-145.69;100.00;72787.56;5056051;28;20216;-76
2022/01/06 01:20:15;;;;;;;11.30;3.23;;;;;;;-145.69;100.00;72787.56;5056293;28;20204;-76
2022/01/06 01:22:42;;;;;;;13.93;3.47;;;;;;;-145.69;100.00;72793.56;5056136;28;20605;-76
2022/01/06 01:25:10;;;;;;;15.00;3.63;;;;;;;-145.69;100.00;72791.56;5056131;28;20223;-76
2022/01/06 01:27:39;;;;;;;12.43;3.43;;;;;;;-145.69;100.00;72787.56;5056075;28;20210;-76
2022/01/06 01:30:11;;;;;;;11.00;3.30;;;;;;;-145.69;100.00;72791.56;5056143;28;20196;-76
2022/01/06 01:32:39;;;;;;;10.80;3.83;;;;;;;-145.69;100.00;72795.53;5055805;28;20614;-76
2022/01/06 01:35:08;;;;;;;11.60;3.63;;;;;;;-145.69;100.00;72803.50;5055430;28;20203;-76
2022/01/06 01:37:36;;;;;;;12.47;3.73;;;;;;;-145.69;100.00;72799.53;5055815;28;20203;-76
2022/01/06 01:40:05;;;;;;;9.83;3.30;;;;;;;-145.69;100.00;72799.53;5055656;28;20658;-76
2022/01/06 01:42:34;;;;;;;22.30;3.50;;;;;;;-145.69;100.00;72799.53;5055962;28;20199;-76
2022/01/06 01:45:02;;;;;;;18.07;4.00;;;;;;;-145.69;100.00;72807.47;5055424;28;20574;-76
2022/01/06 01:47:31;;;;;;;20.37;3.50;;;;;;;-145.69;100.00;72803.50;5055773;28;20670;-76
2022/01/06 01:50:10;;;;;;;9.10;3.10;;;;;;;-145.69;100.00;72805.50;5055669;28;20200;-76
2022/01/06 01:52:37;;;;;;;10.27;3.37;;;;;;;-145.69;100.00;72803.50;5055303;28;20297;-76
2022/01/06 01:55:04;;;;;;;16.73;3.67;;;;;;;-145.69;100.00;72807.47;5055475;28;20211;-76
2022/01/06 01:57:31;;;;;;;16.60;3.23;;;;;;;-145.69;100.00;72811.47;5055640;28;20207;-76
2022/01/06 01:59:59;;;;;;;14.23;3.40;;;;;;;-145.69;100.00;72807.47;5055523;28;20202;-76
2022/01/06 02:02:25;;;;;;;14.40;3.27;;;;;;;-145.69;100.00;72811.47;5055406;28;20208;-76
2022/01/06 02:04:52;;;;;;;18.17;3.80;;;;;;;-145.69;100.00;72809.47;5055259;28;20236;-76
2022/01/06 02:07:19;;;;;;;10.83;4.17;;;;;;;-145.69;100.00;72811.47;5055536;28;20207;-76
2022/01/06 02:09:45;;;;;;;11.83;3.80;;;;;;;-145.69;100.00;72805.50;5055520;28;20203;-77
2022/01/06 02:12:23;;;;;;;9.57;3.90;;;;;;;-145.69;100.00;72813.47;5055302;28;20257;-77
2022/01/06 02:14:49;;;;;;;12.80;4.83;;;;;;;-145.69;100.00;72819.44;5055268;28;20195;-76
2022/01/06 02:17:17;;;;;;;12.27;4.90;;;;;;;-145.69;100.00;72819.44;5054362;28;20200;-77
2022/01/06 02:19:53;;;;;;;14.70;3.90;;;;;;;-145.69;100.00;72805.50;5054313;28;20203;-77
2022/01/06 02:22:19;;;;;;;10.37;3.87;;;;;;;-145.69;100.00;72807.47;5054942;28;20669;-76
2022/01/06 02:24:46;;;;;;;10.73;3.40;;;;;;;-145.69;100.00;72789.56;5055075;28;20233;-77
2022/01/06 02:27:12;;;;;;;8.70;3.80;;;;;;;-145.69;100.00;72793.56;5055412;28;20204;-77
2022/01/06 02:29:39;;;;;;;14.30;3.80;;;;;;;-145.69;100.00;72791.56;5054719;28;20211;-76
2022/01/06 02:32:08;;;;;;;9.53;3.40;;;;;;;-145.69;100.00;72791.56;5053838;28;20202;-77
2022/01/06 02:34:35;;;;;;;8.77;3.47;;;;;;;-145.69;100.00;72783.59;5054871;28;20199;-77
2022/01/06 02:37:04;;;;;;;9.27;3.23;;;;;;;-145.69;100.00;72795.53;5054254;28;20212;-77
2022/01/06 02:39:30;;;;;;;16.40;3.67;;;;;;;-145.69;100.00;72799.53;5045800;28;20204;-76
2022/01/06 02:41:56;;;;;;;12.57;3.50;;;;;;;-145.69;100.00;72809.47;5043848;28;20195;-76
2022/01/06 02:44:25;;;;;;;12.13;3.93;;;;;;;-145.69;100.00;72805.50;5054511;28;20223;-76
2022/01/06 02:46:51;;;;;;;12.00;3.37;;;;;;;-145.69;100.00;72803.50;5054437;28;20316;-76
2022/01/06 02:49:18;;;;;;;23.27;4.17;;;;;;;-145.69;100.00;72799.53;5054402;28;20199;-77
2022/01/06 02:51:44;;;;;;;10.73;3.87;;;;;;;-145.69;100.00;72791.56;5044084;28;20243;-76
2022/01/06 02:54:13;;;;;;;14.97;3.53;;;;;;;-145.69;100.00;72791.56;5034482;28;20208;-76
2022/01/06 02:56:42;;;;;;;24.90;4.03;;;;;;;-145.69;100.00;72805.50;5034491;28;20655;-76
2022/01/06 02:59:08;;;;;;;13.87;4.00;;;;;;;-145.69;100.00;72791.56;5034691;28;20200;-77
2022/01/06 03:01:38;;;;;;;10.23;3.33;;;;;;;-145.69;100.00;72799.53;5034568;28;20200;-77
2022/01/06 03:04:05;;;;;;;12.97;3.47;;;;;;;-145.69;100.00;72799.53;5034779;28;20223;-77
2022/01/06 03:06:31;;;;;;;4.83;3.00;;;;;;;-145.69;100.00;72805.50;5034449;28;20208;-77
2022/01/06 03:08:58;;;;;;;13.37;3.13;;;;;;;-145.69;100.00;72811.47;5034388;28;20254;-77
2022/01/06 03:11:26;;;;;;;7.60;3.63;;;;;;;-145.69;100.00;72805.50;5033846;28;20207;-77
2022/01/06 03:13:52;;;;;;;9.80;3.87;;;;;;;-145.69;100.00;72813.47;5033993;28;20299;-77
2022/01/06 03:16:19;;;;;;;7.63;3.40;;;;;;;-145.69;100.00;72819.44;5048025;28;20249;-77
2022/01/06 03:18:45;;;;;;;13.93;3.60;;;;;;;-145.69;100.00;72811.47;5054191;28;20215;-77
2022/01/06 03:21:12;;;;;;;8.97;3.67;;;;;;;-145.69;100.00;72819.44;5053703;28;20211;-77
2022/01/06 03:23:38;;;;;;;16.60;3.47;;;;;;;-145.69;100.00;72817.44;5053793;28;20194;-77
2022/01/06 03:26:05;;;;;;;7.23;3.20;;;;;;;-145.69;100.00;72817.44;5053872;28;20238;-76
2022/01/06 03:28:34;;;;;;;9.23;3.43;;;;;;;-145.69;100.00;72787.56;5053796;28;20199;-77
2022/01/06 03:31:00;;;;;;;8.97;3.30;;;;;;;-145.69;100.00;72789.56;5053596;28;20581;-76
2022/01/06 03:33:27;;;;;;;11.23;3.60;;;;;;;-145.69;100.00;72813.47;5053529;28;20210;-77
2022/01/06 03:35:53;;;;;;;12.97;3.97;;;;;;;-145.69;100.00;72811.47;5053712;28;20204;-77
2022/01/06 03:38:20;;;;;;;6.23;3.30;;;;;;;-145.69;100.00;72807.47;5053272;28;20195;-77
2022/01/06 03:40:46;;;;;;;10.23;3.60;;;;;;;-145.69;100.00;72803.50;5053478;28;20204;-77
2022/01/06 03:43:13;;;;;;;13.43;4.22;;;;;;;-145.69;100.00;72825.41;5052973;28;20432;-77
2022/01/06 03:45:41;;;;;;;6.80;3.30;;;;;;;-145.69;100.00;72819.44;5052861;28;20235;-77
2022/01/06 03:48:07;;;;;;;9.33;3.43;;;;;;;-145.69;100.00;72819.44;5053305;28;20200;-77
2022/01/06 03:50:33;;;;;;;18.90;5.30;;;;;;;-145.69;100.00;72823.41;5053388;28;20199;-77
2022/01/06 03:53:00;;;;;;;22.37;6.17;;;;;;;-145.69;100.00;72823.41;5053180;28;20234;-76
2022/01/06 03:55:26;;;;;;;14.27;4.33;;;;;;;-145.69;100.00;72805.50;5053007;28;20200;-76
2022/01/06 03:57:53;;;;;;;27.50;7.40;;;;;;;-145.69;100.00;72817.44;5053519;28;20200;-77
2022/01/06 04:00:22;;;;;;;8.57;3.70;;;;;;;-145.69;100.00;72823.41;5052675;28;20676;-76
2022/01/06 04:02:51;;;;;;;10.97;2.93;;;;;;;-145.69;100.00;72807.47;5053136;28;20234;-77
2022/01/06 04:05:18;;;;;;;11.43;3.70;;;;;;;-145.69;100.00;72811.47;5053047;28;20223;-76
2022/01/06 04:07:44;;;;;;;24.60;7.73;;;;;;;-145.69;100.00;72827.38;5052771;28;20598;-76
2022/01/06 04:10:11;;;;;;;20.47;5.30;;;;;;;-145.69;100.00;72827.38;5053298;28;20199;-76
2022/01/06 04:12:38;;;;;;;9.43;3.43;;;;;;;-145.69;100.00;72823.41;5053139;28;20261;-76
2022/01/06 04:15:09;;;;;;;7.17;3.30;;;;;;;-145.69;100.00;72827.38;5052877;28;20654;-76
2022/01/06 04:17:36;;;;;;;8.17;3.10;;;;;;;-145.69;100.00;72827.38;5053142;28;20199;-76
2022/01/06 04:20:07;;;;;;;10.93;3.57;;;;;;;-145.69;100.00;72827.38;5052609;28;20207;-76
2022/01/06 04:22:33;;;;;;;7.00;3.03;;;;;;;-145.69;100.00;72831.38;5052845;28;20277;-76
2022/01/06 04:25:00;;;;;;;13.33;2.87;;;;;;;-145.69;100.00;72825.41;5052391;28;20223;-76
2022/01/06 04:27:26;;;;;;;8.27;2.97;;;;;;;-145.69;100.00;72827.38;5053008;28;20203;-76
2022/01/06 04:29:53;;;;;;;8.53;3.00;;;;;;;-145.69;100.00;72827.38;5047308;28;20204;-76
2022/01/06 04:32:19;;;;;;;7.60;2.70;;;;;;;-145.69;100.00;72827.38;5032921;28;20211;-77
2022/01/06 04:34:46;;;;;;;12.83;3.47;;;;;;;-145.69;100.00;72831.38;5032545;28;20208;-76
2022/01/06 04:37:14;;;;;;;4.83;2.70;;;;;;;-145.69;100.00;72821.41;5033064;28;20200;-77
2022/01/06 04:39:40;;;;;;;10.20;3.10;;;;;;;-145.69;100.00;72829.38;5032562;28;20675;-77
2022/01/06 04:42:07;;;;;;;9.20;2.60;;;;;;;-145.69;100.00;72825.41;5034929;28;20563;-77
2022/01/06 04:44:33;;;;;;;9.20;3.60;;;;;;;-145.69;100.00;72827.38;5037721;28;20626;-77
2022/01/06 04:47:01;;;;;;;10.10;3.10;;;;;;;-145.69;100.00;72831.38;5056840;28;20199;-77
2022/01/06 04:49:27;;;;;;;13.30;3.00;;;;;;;-145.69;100.00;72835.34;5056804;28;20237;-77
2022/01/06 04:51:54;;;;;;;10.47;3.50;;;;;;;-145.69;100.00;72843.31;5056524;28;20728;-77
2022/01/06 04:54:21;;;;;;;8.97;2.67;;;;;;;-145.69;100.00;72839.34;5056434;28;20202;-77
2022/01/06 04:56:48;;;;;;;14.30;3.00;;;;;;;-145.69;100.00;72839.34;5056689;28;20216;-76
2022/01/06 04:59:14;;;;;;;18.17;5.90;;;;;;;-145.69;100.00;72843.31;5056703;28;20210;-77
2022/01/06 05:01:41;;;;;;;15.37;3.60;;;;;;;-145.69;100.00;72847.28;5056139;28;20199;-76
2022/01/06 05:04:07;;;;;;;8.30;3.47;;;;;;;-145.69;100.00;72855.25;5056442;28;20203;-77
2022/01/06 05:06:34;;;;;;;8.00;3.13;;;;;;;-145.69;100.00;72867.19;5056550;28;20235;-77
2022/01/06 05:09:01;;;;;;;9.00;2.90;;;;;;;-145.69;100.00;72867.19;5056159;28;20199;-76
2022/01/06 05:11:29;;;;;;;9.00;3.37;;;;;;;-145.69;100.00;72867.19;5056518;28;20290;-77
2022/01/06 05:13:56;;;;;;;10.32;4.50;;;;;;;-145.69;100.00;72867.19;5055384;28;20431;-77
2022/01/06 05:16:22;;;;;;;6.27;2.53;;;;;;;-145.69;100.00;72857.25;5055859;28;20815;-77
2022/01/06 05:18:48;;;;;;;9.23;3.27;;;;;;;-145.69;100.00;72863.22;5055927;28;20199;-77
2022/01/06 05:21:15;;;;;;;7.73;3.20;;;;;;;-145.69;100.00;72871.19;5056266;28;20199;-76
2022/01/06 05:23:42;;;;;;;7.90;3.10;;;;;;;-145.69;100.00;72885.13;5056290;28;20210;-77
2022/01/06 05:26:09;;;;;;;7.33;3.07;;;;;;;-145.69;100.00;72887.09;5056018;28;20235;-76
2022/01/06 05:28:37;;;;;;;7.37;3.10;;;;;;;-145.69;100.00;72887.09;5055820;28;20294;-77
2022/01/06 05:31:04;;;;;;;11.13;3.30;;;;;;;-145.69;100.00;72891.09;5055970;28;20206;-76
2022/01/06 05:33:30;;;;;;;11.83;3.43;;;;;;;-145.69;100.00;72885.13;5056168;28;20544;-76
2022/01/06 05:35:57;;;;;;;10.30;3.50;;;;;;;-145.69;100.00;72879.16;5055514;28;20249;-77
2022/01/06 05:38:23;;;;;;;10.43;3.00;;;;;;;-145.69;100.00;72871.19;5055937;28;20216;-77
2022/01/06 05:40:50;;;;;;;10.00;3.13;;;;;;;-145.69;100.00;72879.16;5056048;28;20211;-77
2022/01/06 05:43:19;;;;;;;5.77;3.00;;;;;;;-145.69;100.00;72885.13;5056007;28;20210;-77
2022/01/06 05:45:47;;;;;;;6.00;2.87;;;;;;;-145.69;100.00;72883.13;5054987;28;20626;-77
2022/01/06 05:48:14;;;;;;;9.47;3.47;;;;;;;-145.69;100.00;72891.09;5055573;28;20605;-77
2022/01/06 05:50:40;;;;;;;7.83;3.70;;;;;;;-145.69;100.00;72897.06;5055802;28;20258;-77
2022/01/06 05:53:07;;;;;;;10.40;3.60;;;;;;;-145.69;100.00;72897.06;5055373;28;20234;-77
2022/01/06 05:55:33;;;;;;;10.07;3.60;;;;;;;-145.69;100.00;72899.06;5055033;28;20192;-76
2022/01/06 05:58:00;;;;;;;7.80;3.23;;;;;;;-145.69;100.00;72887.09;5055591;28;20203;-77
2022/01/06 06:00:26;;;;;;;11.30;3.23;;;;;;;-145.69;100.00;72895.06;5055160;28;20200;-76
2022/01/06 06:02:54;;;;;;;7.17;2.83;;;;;;;-145.69;100.00;72883.13;5055709;28;20195;-76
2022/01/06 06:05:20;;;;;;;5.20;3.00;;;;;;;-145.69;100.00;72887.09;5055495;28;20246;-77
2022/01/06 06:07:47;;;;;;;7.47;3.30;;;;;;;-145.69;100.00;72871.19;5055473;28;20204;-76
2022/01/06 06:10:15;;;;;;;6.83;2.60;;;;;;;-145.69;100.00;72881.13;5055344;28;20558;-76
2022/01/06 06:12:41;;;;;;;5.17;2.93;;;;;;;-145.69;100.00;72879.16;5055253;28;20203;-77
2022/01/06 06:15:08;;;;;;;6.17;3.00;;;;;;;-145.69;100.00;72883.13;5055008;28;20293;-77
2022/01/06 06:17:35;;;;;;;10.03;2.80;;;;;;;-145.69;100.00;72883.13;5055276;28;20195;-77
2022/01/06 06:20:04;;;;;;;8.70;2.97;;;;;;;-145.69;100.00;72879.16;5054901;28;20203;-77
2022/01/06 06:22:30;;;;;;;7.63;3.00;;;;;;;-145.69;100.00;72887.09;5055107;28;20206;-76
2022/01/06 06:24:56;;;;;;;10.43;3.03;;;;;;;-145.69;100.00;72871.19;5055022;28;20203;-76
2022/01/06 06:27:23;;;;;;;6.77;3.13;;;;;;;-145.69;100.00;72885.13;5054804;28;20211;-76
2022/01/06 06:29:50;;;;;;;17.80;6.30;;;;;;;-145.69;100.00;72891.09;5054809;28;20203;-76
2022/01/06 06:32:16;;;;;;;7.97;3.33;;;;;;;-145.69;100.00;72901.03;5034527;28;20207;-76
2022/01/06 06:34:43;;;;;;;8.13;3.20;;;;;;;-145.69;100.00;72905.03;5035163;28;20212;-77
2022/01/06 06:37:10;;;;;;;11.50;3.73;;;;;;;-145.69;100.00;72911.00;5034946;28;20542;-76
2022/01/06 06:39:37;;;;;;;11.17;4.57;;;;;;;-145.69;100.00;72911.00;5034662;28;20204;-77
2022/01/06 06:42:04;;;;;;;8.77;3.60;;;;;;;-145.69;100.00;72913.00;5034695;28;20207;-76
2022/01/06 06:44:30;;;;;;;5.57;3.17;;;;;;;-145.69;100.00;72914.97;5039644;28;20574;-76
2022/01/06 06:46:57;;;;;;;7.43;3.30;;;;;;;-145.69;100.00;72911.00;5054297;28;20230;-76
2022/01/06 06:49:23;;;;;;;7.50;2.93;;;;;;;-145.69;100.00;72909.00;5054661;28;20215;-77
2022/01/06 06:51:50;;;;;;;9.07;3.13;;;;;;;-145.69;100.00;72916.97;5054488;28;20263;-77
2022/01/06 06:54:18;;;;;;;7.60;3.33;;;;;;;-145.69;100.00;72907.00;5054691;28;20206;-77
2022/01/06 06:56:44;;;;;;;5.67;2.97;;;;;;;-145.69;100.00;72913.00;5054322;28;20203;-77
2022/01/06 06:59:11;;;;;;;8.27;2.70;;;;;;;-145.69;100.00;72918.97;5054601;28;20265;-76
2022/01/06 07:01:37;;;;;;;6.43;3.17;;;;;;;-145.69;100.00;72922.94;5054521;28;20208;-77
2022/01/06 07:04:04;;;;;;;3.90;2.47;;;;;;;-145.69;100.00;72918.97;5053418;28;20199;-76
2022/01/06 07:06:30;;;;;;;5.10;2.20;;;;;;;-145.69;100.00;72918.97;5054426;28;20227;-77
2022/01/06 07:08:57;;;;;;;6.30;3.23;;;;;;;-145.69;100.00;72913.00;5054462;28;20196;-77
2022/01/06 07:11:25;;;;;;;7.50;3.60;;;;;;;-145.69;100.00;72916.97;5054112;28;20674;-77
2022/01/06 07:13:52;;;;;;;7.43;2.80;;;;;;;-145.69;100.00;72926.91;5054041;28;20207;-77
2022/01/06 07:16:18;;;;;;;4.07;2.13;;;;;;;-145.69;100.00;72926.91;5053998;28;20195;-76
2022/01/06 07:18:45;;;;;;;3.43;2.33;;;;;;;-145.69;100.00;72930.91;5053993;28;20196;-77
2022/01/06 07:21:11;;;;;;;7.83;2.47;;;;;;;-145.69;100.00;72930.91;5054055;28;20206;-77
2022/01/06 07:23:37;;;;;;;5.03;2.50;;;;;;;-145.69;100.00;72930.91;5054128;28;20214;-77
2022/01/06 07:26:04;;;;;;;5.10;2.40;;;;;;;-145.69;100.00;72922.94;5054021;28;20226;-77
2022/01/06 07:28:32;;;;;;;4.47;3.00;;;;;;;-145.69;100.00;72932.91;5054170;28;20206;-77
2022/01/06 07:30:58;;;;;;;5.67;2.40;;;;;;;-145.69;100.00;72922.94;5054045;28;20203;-77
2022/01/06 07:33:25;;;;;;;8.10;3.10;;;;;;;-145.69;100.00;72922.94;5053548;28;20204;-76
2022/01/06 07:35:51;;;;;;;6.20;2.40;;;;;;;-145.69;100.00;72926.91;5053734;28;20207;-76
2022/01/06 07:38:18;;;;;;;7.67;2.47;;;;;;;-145.69;100.00;72926.91;5053666;28;20207;-77
2022/01/06 07:40:44;;;;;;;4.93;2.67;;;;;;;-145.69;100.00;72934.88;5053850;28;20195;-77
2022/01/06 07:43:11;;;;;;;5.33;2.90;;;;;;;-145.69;100.00;72934.88;5053778;28;20208;-76
2022/01/06 07:45:39;;;;;;;5.87;3.17;;;;;;;-145.69;100.00;72934.88;5053375;28;20225;-76
2022/01/06 07:48:15;;;;;;;4.73;2.57;;;;;;;-145.69;100.00;72946.81;5053536;28;20203;-77
2022/01/06 07:50:42;;;;;;;6.83;2.77;;;;;;;-145.69;100.00;72944.84;5053391;28;20571;-77
2022/01/06 07:53:09;;;;;;;9.17;2.87;;;;;;;-145.69;100.00;72946.81;5052971;28;20236;-77
2022/01/06 07:55:36;;;;;;;5.60;2.87;;;;;;;-145.69;100.00;72950.81;5053327;28;20678;-77
2022/01/06 07:58:03;;;;;;;5.27;3.00;;;;;;;-145.69;100.00;72936.88;5053341;28;20651;-77
2022/01/06 08:00:30;;;;;;;12.03;4.37;;;;;;;-145.69;100.00;72930.91;5053454;28;20207;-77
2022/01/06 08:02:58;;;;;;;5.67;3.10;;;;;;;-145.69;100.00;72948.81;5053372;28;20203;-76
2022/01/06 08:05:27;;;;;;;8.17;2.90;;;;;;;-145.69;100.00;72950.81;5053037;28;20202;-77
2022/01/06 08:07:54;;;;;;;6.30;2.80;;;;;;;-145.69;100.00;72952.78;5053416;28;20195;-76
2022/01/06 08:10:21;;;;;;;3.80;2.83;;;;;;;-145.69;100.00;72960.75;5053336;28;20253;-77
2022/01/06 08:12:47;;;;;;;8.27;3.37;;;;;;;-145.69;100.00;72956.78;5053390;28;20257;-76
2022/01/06 08:15:14;;;;;;;12.37;5.33;;;;;;;-145.69;100.00;72964.75;5052776;28;20662;-76
2022/01/06 08:17:41;;;;;;;10.67;3.20;;;;;;;-145.69;100.00;72958.78;5053009;28;20294;-77
2022/01/06 08:20:11;;;;;;;7.23;3.00;;;;;;;-145.69;100.00;72958.78;5053248;28;20567;-77
2022/01/06 08:22:38;;;;;;;9.73;2.97;;;;;;;-145.69;100.00;72958.78;5052546;28;20196;-77
2022/01/06 08:25:07;;;;;;;5.27;3.53;;;;;;;-145.69;100.00;72948.81;5045275;28;20211;-77
2022/01/06 08:27:34;;;;;;;8.23;4.60;;;;;;;-145.69;100.00;72944.84;5033162;28;20236;-77
2022/01/06 08:30:00;;;;;;;6.00;3.50;;;;;;;-145.69;100.00;72938.88;5052178;28;20199;-77
2022/01/06 08:32:27;;;;;;;8.20;3.20;;;;;;;-145.69;100.00;72938.88;5052626;28;20205;-77
2022/01/06 08:34:53;;;;;;;6.00;3.10;;;;;;;-145.69;100.00;72934.88;5053093;28;20200;-77
2022/01/06 08:37:21;;;;;;;4.97;2.97;;;;;;;-145.69;100.00;72920.94;5052927;28;20609;-76
2022/01/06 08:39:48;;;;;;;5.87;3.47;;;;;;;-145.69;100.00;72918.97;5052903;28;20249;-76
2022/01/06 08:42:14;;;;;;;9.00;3.50;;;;;;;-145.69;100.00;72916.97;5052883;28;20260;-76
2022/01/06 08:44:41;;;;;;;4.70;3.13;;;;;;;-145.69;100.00;72918.97;5053006;28;20214;-76
2022/01/06 08:47:08;;;;;;;7.43;3.77;;;;;;;-145.69;100.00;72916.97;5052569;28;20227;-76
2022/01/06 08:49:35;;;;;;;4.90;2.97;;;;;;;-145.69;100.00;72914.97;5052752;28;20563;-76
2022/01/06 08:52:03;;;;;;;4.70;3.20;;;;;;;-145.69;100.00;72918.97;5052310;28;20223;-76
2022/01/06 08:54:31;;;;;;;7.10;3.60;;;;;;;-145.69;100.00;72938.88;5052621;28;20279;-76
2022/01/06 08:56:58;;;;;;;9.07;3.57;;;;;;;-145.69;100.00;72932.91;5052508;28;20207;-76
2022/01/06 08:59:24;;;;;;;5.53;3.27;;;;;;;-145.69;100.00;72922.94;5052539;28;20203;-76
2022/01/06 09:01:51;;;;;;;9.73;4.20;;;;;;;-145.69;100.00;72928.91;5051866;28;20206;-76
2022/01/06 09:04:20;;;;;;;8.40;3.77;;;;;;;-145.69;100.00;72938.88;5052548;28;20195;-76
2022/01/06 09:06:47;;;;;;;7.60;3.03;;;;;;;-145.69;100.00;72946.81;5052283;28;20231;-77
2022/01/06 09:09:14;;;;;;;7.60;3.70;;;;;;;-145.69;100.00;72928.91;5052547;28;20298;-76
2022/01/06 09:11:42;;;;;;;12.93;5.50;;;;;;;-145.69;100.00;72914.97;5052674;28;20226;-76
2022/01/06 09:14:09;;;;;;;9.03;4.73;;;;;;;-145.69;100.00;72911.00;5052527;28;20199;-76
2022/01/06 09:16:36;;;;;;;8.87;4.50;;;;;;;-145.69;100.00;72893.09;5052448;28;20550;-76
2022/01/06 09:19:03;;;;;;;7.23;3.60;;;;;;;-145.69;100.00;72881.13;5052465;28;20210;-76
2022/01/06 09:21:29;;;;;;;7.43;3.23;;;;;;;-145.69;100.00;72873.19;5052207;28;20211;-76
2022/01/06 09:23:59;;;;;;;7.77;3.50;;;;;;;-145.69;100.00;72851.28;5052459;28;20203;-76
2022/01/06 09:26:26;;;;;;;6.70;3.23;;;;;;;-145.69;100.00;72833.38;5052033;28;20231;-75
2022/01/06 09:28:54;;;;;;;10.73;4.03;;;;;;;-145.69;100.00;72823.41;5055773;28;20222;-76
2022/01/06 09:31:21;;;;;;;7.77;3.23;;;;;;;-145.69;100.00;72815.44;5056203;28;20198;-75
2022/01/06 09:33:47;;;;;;;5.70;3.10;;;;;;;-145.69;100.00;72807.47;5056171;28;20196;-75
2022/01/06 09:36:13;;;;;;;5.70;2.63;;;;;;;-145.69;100.00;72793.56;5055931;28;20253;-76
2022/01/06 09:38:41;;;;;;;7.20;2.33;;;;;;;-145.69;100.00;72801.50;5056032;28;20203;-76
2022/01/06 09:41:10;;;;;;;5.00;2.47;;;;;;;-145.69;100.00;72795.53;5055875;28;20202;-76
2022/01/06 09:43:37;;;;;;;6.70;3.10;;;;;;;-145.69;100.00;72795.53;5055850;28;20295;-76
2022/01/06 09:46:08;;;;;;;8.07;3.63;;;;;;;-145.69;100.00;72791.56;5056149;28;20605;-76
2022/01/06 09:48:36;;;;;;;6.70;2.80;;;;;;;-145.69;100.00;72783.59;5057577;28;20214;-75
2022/01/06 09:51:03;;;;;;;6.13;2.87;;;;;;;-145.69;100.00;72805.50;5049528;28;20253;-76
2022/01/06 09:53:30;;;;;;;3.87;2.23;;;;;;;-145.69;100.00;72791.56;5055006;28;20199;-76
2022/01/06 09:55:56;;;;;;;6.13;2.60;;;;;;;-145.69;100.00;72787.56;5055354;28;20206;-76
2022/01/06 09:58:25;;;;;;;5.43;2.87;;;;;;;-145.69;100.00;72795.53;5055302;28;20199;-75
2022/01/06 10:00:55;;;;;;;4.93;2.60;;;;;;;-145.69;100.00;72787.56;5055498;28;20261;-75
2022/01/06 10:03:33;;;;;;;7.67;3.23;;;;;;;-145.69;100.00;72811.47;5055591;28;20206;-75
2022/01/06 10:06:10;;;;;;;6.90;3.97;;;;;;;-145.69;100.00;72799.53;5055343;28;20261;-75
2022/01/06 10:08:37;;;;;;;4.40;2.93;;;;;;;-145.69;100.00;72783.59;5054840;28;20222;-75
2022/01/06 10:11:11;;;;;;;4.73;2.63;;;;;;;-145.69;100.00;72811.47;5055232;28;20203;-75
2022/01/06 10:13:39;;;;;;;7.67;3.40;;;;;;;-145.69;100.00;72779.63;5055102;28;20202;-75
2022/01/06 10:16:17;;;;;;;7.33;4.13;;;;;;;-145.69;100.00;72793.56;5054825;28;20208;-75
2022/01/06 10:19:00;;;;;;;9.70;4.17;;;;;;;-145.69;100.00;72801.50;5055059;28;20210;-75
2022/01/06 10:21:31;;;;;;;4.73;2.57;;;;;;;-145.69;100.00;72799.53;5054985;28;20203;-75
2022/01/06 10:24:02;;;;;;;4.43;2.00;;;;;;;-145.69;100.00;72785.59;5055086;28;20203;-76
2022/01/06 10:26:28;;;;;;;3.47;1.97;;;;;;;-145.69;100.00;72791.56;5054716;28;20230;-75
2022/01/06 10:28:55;;;;;;;2.93;1.90;;;;;;;-145.69;100.00;72821.41;5054795;28;20203;-75
2022/01/06 10:31:26;;;;;;;3.67;1.87;;;;;;;-145.69;100.00;72845.31;5054800;28;20199;-75
2022/01/06 10:33:54;;;;;;;3.77;2.10;;;;;;;-145.69;100.00;72829.38;5045801;28;20192;-75
2022/01/06 10:36:28;;;;;;;6.50;2.20;;;;;;;-145.69;100.00;72809.47;5034766;28;20203;-75
2022/01/06 10:38:56;;;;;;;3.47;2.03;;;;;;;-145.69;100.00;72807.47;5033685;28;20204;-75
2022/01/06 10:41:22;;;;;;;2.63;1.77;;;;;;;-145.69;100.00;72825.41;5043007;28;20540;-75
2022/01/06 10:43:50;;;;;;;3.50;2.13;;;;;;;-145.69;100.00;72799.53;5054463;28;20211;-75
2022/01/06 10:46:28;;;;;;;10.87;2.60;;;;;;;-145.69;100.00;72787.56;5054500;28;20234;-75
2022/01/06 10:48:59;;;;;;;2.60;1.60;;;;;;;-145.69;100.00;72763.69;5054679;28;20203;-75
2022/01/06 10:51:40;;;;;;;4.47;2.20;;;;;;;-145.69;100.00;72737.81;5054212;28;20255;-75
2022/01/06 10:54:13;;;;;;;4.43;1.90;;;;;;;-145.69;100.00;72747.78;5054425;28;20286;-75
2022/01/06 10:56:40;;;;;;;2.40;1.60;;;;;;;-145.69;100.00;72759.72;5054546;28;20204;-76
2022/01/06 10:59:06;;;;;;;4.37;1.70;;;;;;;-145.69;100.00;72793.56;5054430;28;20208;-75
2022/01/06 11:01:34;;;;;;;2.10;1.83;;;;;;;-145.69;100.00;72797.53;5054169;28;20658;-76
2022/01/06 11:04:04;;;;;;;3.97;2.43;;;;;;;-145.69;100.00;72807.47;5054262;28;20661;-76
2022/01/06 11:06:31;;;;;;;3.30;1.77;;;;;;;-145.69;100.00;72809.47;5054056;28;20207;-76
2022/01/06 11:08:58;;;;;;;2.40;1.70;;;;;;;-145.69;100.00;72823.41;5054383;28;20207;-76
2022/01/06 11:14:14;;;;;;;3.77;1.90;;;;;;;-145.69;100.00;72841.31;5053838;28;20201;-75